Terminal Aerodrome Forecast
Issued by NWS Charleston, WV

Current Version | Previous Version | Graphics & Text | Print | Product List | Glossary On
Versions: 1 2 3 4 5 6 7 8 9 10 11 12 13 14 15 16 17 18 19 20 21 22 23 24
000
FTUS41 KRLX 151700
TAFCRW
TAF
KCRW 151731Z 1518/1618 06004KT 6SM -RA OVC080
     FM151900 10008KT P6SM OVC035
     FM161200 14009KT P6SM OVC045
     FM161500 14014G20KT P6SM OVC045=

USA.gov is the U.S. government's official web portal to all federal, state and local government web resources and services.